20:15
Airports
Links
Donate
Help keep this website running!
PayPal
Bitcoin
METAR
EDLW 221950Z 19015KT CAVOK 10/02 Q1004
Current Weather Conditions at EDLW
VFR 19:50:00 22-11-17
Altimeter:29.65 hg
Temp:10.0°c 50°f
Dew point:2.0°c 36°f
Wind:15 knots, 17.3 mph, 8 m/s, from 190°
Visibility:6.21 statute miles
(CAVOK)
Past METAR reports
VFR 19:20:00 22-11-17
Altimeter:29.65 hg
Temp:10.0°c 50°f
Dew point:2.0°c 36°f
Wind:14 knots, 16.1 mph, 7 m/s, from 190°
Visibility:6.21 statute miles
(CAVOK)
EDLW 221920Z 19014KT CAVOK 10/02 Q1004
VFR 18:50:00 22-11-17
Altimeter:29.65 hg
Temp:10.0°c 50°f
Dew point:2.0°c 36°f
Wind:18 knots, 20.7 mph, 9 m/s, from 190°
Visibility:6.21 statute miles
(CAVOK)
EDLW 221850Z 19018KT CAVOK 10/02 Q1004
VFR 18:20:00 22-11-17
Altimeter:29.65 hg
Temp:10.0°c 50°f
Dew point:2.0°c 36°f
Wind:14 knots, 16.1 mph, 7 m/s, from 190°
Visibility:6.21 statute miles
(CAVOK)
EDLW 221820Z 19014KT CAVOK 10/02 Q1004
VFR 17:50:00 22-11-17
Altimeter:29.65 hg
Temp:10.0°c 50°f
Dew point:3.0°c 37°f
Wind:13 knots, 15 mph, 7 m/s, from 180°
Visibility:6.21 statute miles
(CAVOK)
EDLW 221750Z 18013KT CAVOK 10/03 Q1004
VFR 17:20:00 22-11-17
Altimeter:29.68 hg
Temp:10.0°c 50°f
Dew point:3.0°c 37°f
Wind:14 knots, 16.1 mph, 7 m/s, from 180°
Visibility:6.21 statute miles
(CAVOK)
EDLW 221720Z 18014KT CAVOK 10/03 Q1005
VFR 16:50:00 22-11-17
Altimeter:29.68 hg
Temp:10.0°c 50°f
Dew point:4.0°c 39°f
Wind:13 knots, 15 mph, 7 m/s, from 180°
Visibility:6.21 statute miles
(CAVOK)
EDLW 221650Z 18013KT CAVOK 10/04 Q1005
TAF
TAF EDLW 221700Z 2218/2318 17015KT CAVOK BECMG 2222/2301 19015G25KT TEMPO 2308/2316 21020G35KT
Forecast at EDLW
18:00 22-11-17 to 22:00 22-11-17
NSW
Wind:15 Knots from 170°
Visibility:6.21 statute miles
NSC
BECMG 22:00 22-11-17 to 18:00 23-11-17
NSW
Wind:15 Knots from 190°
Visibility:6.21 statute miles
NSC
TEMPO 08:00 23-11-17 to 16:00 23-11-17
Wind:20 Knots from 210°